Welcome to Northern Hawkes Bay. New Zealand.
PWS Header
      nz Flag



Hit Counter


W3C Valid W3C Valid logo


    Wairoa

Select any of the Stations below to visit their websites.










Historic Data from Weather Underground
Select the location of interest below. Wairoa is the default. Please have patience, this Data is slow to load in.
Northern Hawkes Bay Historical Data
Daily Summary for April 20, 2017 Units:  English    Metric   Both
« Previous Day
Next Day »
Daily Weekly Monthly Yearly Custom
  High: Low: Average:
Temperature: 71.8 °F 47.5 °F 55.2 °F
Dew Point: 49.8 °F 42.4 °F 45.7 °F
Humidity: 86% 37% 71%
Wind Speed: 18.3mph 0mph 5.2mph
Wind Gust: 29.8mph - -
Wind- - West
Pressure: 30.4 in 30.2 in -
Precipitation: 0 in    
Historical Graphs
 
 
Tabular Data for April 20, 2017
Time Temperature Dew Point Pressure Wind Wind Speed Wind Gust Humidity Rainfall Rate (Hourly) solar
00:00 58.5 °F 49.5 °F 30.2 in SSW 16.8 mph 28.2 mph 72% 0.01 in 55 W/m2
00:05 58.3 °F 47.8 °F 30.2 in SSW 11.4 mph 28.2 mph 68% 0.01 in 59 W/m2
00:10 58.3 °F 48.6 °F 30.2 in SSW 10.7 mph 28.2 mph 70% 0 in 53 W/m2
00:15 58.1 °F 48.4 °F 30.2 in SW 18.3 mph 22.1 mph 70% 0 in 58 W/m2
00:20 58.1 °F 47.7 °F 30.2 in SW 13.6 mph 22.1 mph 68% 0 in 65 W/m2
00:25 58.3 °F 48.6 °F 30.2 in SSW 16.8 mph 25.1 mph 70% 0 in 53 W/m2
00:30 58.1 °F 47.1 °F 30.2 in SSW 14.5 mph 25.9 mph 67% 0 in 41 W/m2
00:35 57.9 °F 48.2 °F 30.2 in SSW 13.6 mph 25.9 mph 70% 0 in 37 W/m2
00:40 57.7 °F 48.4 °F 30.2 in SSW 16.8 mph 24.4 mph 71% 0 in 39 W/m2
00:45 57.7 °F 48.7 °F 30.2 in SSW 9.8 mph 24.4 mph 72% 0 in 42 W/m2
00:50 57.7 °F 49.3 °F 30.2 in SSW 12.1 mph 22.8 mph 73% 0 in 22 W/m2
00:55 57.7 °F 49.5 °F 30.2 in SSW 13 mph 22.8 mph 74% 0 in 19 W/m2
01:00 57.7 °F 49.5 °F 30.2 in SW 12.1 mph 22.8 mph 74% 0 in 19 W/m2
01:05 57.7 °F 49.5 °F 30.2 in SSW 11.4 mph 25.1 mph 74% 0 in 20 W/m2
01:10 57.6 °F 48.2 °F 30.2 in SSW 14.5 mph 25.1 mph 71% 0 in 14 W/m2
01:15 57.6 °F 48.6 °F 30.2 in SSW 11.4 mph 22.8 mph 72% 0 in 12 W/m2
01:20 57.7 °F 48.7 °F 30.2 in SSW 12.1 mph 22.8 mph 72% 0 in 8 W/m2
01:25 57.6 °F 46.8 °F 30.2 in SSW 11.4 mph 21.3 mph 67% 0 in 5 W/m2
01:30 57.7 °F 46.9 °F 30.2 in SSW 10.7 mph 22.8 mph 67% 0 in 3 W/m2
01:35 57.7 °F 46.9 °F 30.2 in SSW 15.9 mph 25.1 mph 67% 0 in 1 W/m2
01:40 57.7 °F 46.9 °F 30.2 in SSW 14.5 mph 25.1 mph 67% 0 in 0 W/m2
01:45 57.7 °F 46.6 °F 30.2 in SSW 8.3 mph 22.8 mph 66% 0 in 0 W/m2
01:50 57.7 °F 46.9 °F 30.2 in SSW 13 mph 22.8 mph 67% 0 in 0 W/m2
01:55 57.6 °F 47.1 °F 30.2 in SSW 14.5 mph 19.7 mph 68% 0 in 0 W/m2
02:00 57.6 °F 47.5 °F 30.2 in SSW 11.4 mph 21.3 mph 69% 0 in 0 W/m2
02:05 57.4 °F 48.7 °F 30.2 in SSW 15.9 mph 22.8 mph 73% 0 in 0 W/m2
02:10 56.5 °F 47.8 °F 30.2 in South 13.6 mph 28.9 mph 73% 0 in 0 W/m2
02:15 56.7 °F 49.3 °F 30.2 in SSW 9.2 mph 28.9 mph 76% 0 in 0 W/m2
02:20 57 °F 49.8 °F 30.2 in SSW 17.4 mph 29.8 mph 77% 0 in 0 W/m2
02:25 56.8 °F 48.9 °F 30.2 in South 13.6 mph 29.8 mph 75% 0 in 0 W/m2
02:30 56.8 °F 48.9 °F 30.2 in SSW 14.5 mph 29.8 mph 75% 0 in 0 W/m2
02:35 56.7 °F 48.7 °F 30.2 in SW 16.8 mph 25.1 mph 75% 0 in 0 W/m2
02:40 56.8 °F 48.9 °F 30.2 in SSW 17.4 mph 26.6 mph 75% 0 in 0 W/m2
02:45 56.7 °F 48.7 °F 30.2 in SSW 13.6 mph 26.6 mph 75% 0 in 0 W/m2
02:50 56.7 °F 48 °F 30.2 in SSW 15.2 mph 25.9 mph 73% 0 in 0 W/m2
02:55 56.8 °F 47.5 °F 30.2 in SSW 13.6 mph 25.9 mph 71% 0 in 0 W/m2
03:00 57 °F 46.9 °F 30.2 in SSW 10.7 mph 25.9 mph 69% 0 in 0 W/m2
03:05 56.8 °F 46.8 °F 30.2 in SSW 15.9 mph 25.9 mph 69% 0 in 0 W/m2
03:10 56.7 °F 46.9 °F 30.2 in SSW 12.1 mph 23.5 mph 70% 0 in 0 W/m2
03:15 56.7 °F 46.6 °F 30.2 in SSW 15.9 mph 23.5 mph 69% 0 in 0 W/m2
03:20 56.7 °F 45.9 °F 30.2 in SSW 15.2 mph 23.5 mph 67% 0 in 0 W/m2
03:25 56.7 °F 46.2 °F 30.2 in South 13 mph 25.9 mph 68% 0 in 0 W/m2
03:30 56.7 °F 46.6 °F 30.2 in SSW 14.5 mph 25.9 mph 69% 0 in 0 W/m2
03:35 56.7 °F 47.5 °F 30.2 in SW 11.4 mph 22.8 mph 71% 0 in 0 W/m2
03:40 56.7 °F 48 °F 30.2 in SSW 12.1 mph 22.8 mph 73% 0 in 0 W/m2
03:45 56.7 °F 49.3 °F 30.2 in SSW 12.1 mph 20.6 mph 76% 0 in 0 W/m2
03:50 56.3 °F 48.6 °F 30.3 in SSW 17.4 mph 22.8 mph 75% 0 in 0 W/m2
03:55 56.1 °F 48.7 °F 30.3 in SSW 12.1 mph 22.8 mph 76% 0 in 0 W/m2
04:00 55.9 °F 48 °F 30.3 in SSW 13.6 mph 22.8 mph 75% 0 in 0 W/m2
04:06 56.1 °F 47.7 °F 30.3 in SSW 7.6 mph 19.7 mph 73% 0 in 0 W/m2
04:11 56.1 °F 47.7 °F 30.3 in SSW 8.3 mph 19.7 mph 73% 0 in 0 W/m2
04:16 55.9 °F 45.9 °F 30.3 in SW 10.7 mph 20.6 mph 69% 0 in 0 W/m2
04:21 55.9 °F 45.1 °F 30.3 in SW 12.1 mph 22.1 mph 67% 0 in 0 W/m2
04:26 56.1 °F 45.7 °F 30.3 in SW 11.4 mph 22.1 mph 68% 0 in 0 W/m2
04:31 56.3 °F 46.2 °F 30.3 in SW 14.5 mph 22.8 mph 69% 0 in 0 W/m2
04:36 55.9 °F 45.5 °F 30.3 in SW 12.1 mph 22.8 mph 68% 0 in 0 W/m2
04:41 55.9 °F 45.9 °F 30.3 in SW 9.8 mph 21.3 mph 69% 0 in 0 W/m2
04:46 55.8 °F 45.9 °F 30.3 in SSW 11.4 mph 19.7 mph 69% 0 in 0 W/m2
04:51 55.6 °F 45.1 °F 30.3 in SW 7.6 mph 19.7 mph 68% 0 in 0 W/m2
04:56 55.4 °F 45 °F 30.3 in SW 6.9 mph 17.4 mph 68% 0 in 0 W/m2
05:01 55.4 °F 45 °F 30.3 in SW 6.9 mph 13.6 mph 68% 0 in 0 W/m2
05:06 55.4 °F 45 °F 30.3 in SW 14.5 mph 17.4 mph 68% 0 in 0 W/m2
05:11 55.2 °F 45.1 °F 30.3 in SW 6.9 mph 17.4 mph 69% 0 in 0 W/m2
05:16 55.2 °F 45.1 °F 30.3 in SW 6.9 mph 17.4 mph 69% 0 in 0 W/m2
05:21 55.2 °F 45.1 °F 30.3 in SW 7.6 mph 18.3 mph 69% 0 in 0 W/m2
05:26 55.2 °F 45 °F 30.3 in SW 7.6 mph 18.3 mph 68% 0 in 0 W/m2
05:31 55.2 °F 45.7 °F 30.3 in WSW 11.4 mph 18.3 mph 70% 0 in 0 W/m2
05:36 55.2 °F 45 °F 30.3 in SW 10.7 mph 18.3 mph 68% 0 in 0 W/m2
05:41 55.2 °F 45.7 °F 30.3 in SW 7.6 mph 18.3 mph 70% 0 in 0 W/m2
05:46 55 °F 45.3 °F 30.3 in WSW 11.4 mph 17.4 mph 70% 0 in 0 W/m2
05:51 55 °F 45.3 °F 30.3 in West 8.3 mph 17.4 mph 70% 0 in 0 W/m2
05:56 54.9 °F 45.3 °F 30.3 in SW 9.2 mph 19 mph 70% 0 in 0 W/m2
06:01 54.7 °F 45.5 °F 30.3 in SW 9.2 mph 19 mph 71% 0 in 0 W/m2
06:06 54.7 °F 45.9 °F 30.3 in SW 8.3 mph 19 mph 72% 0 in 0 W/m2
06:11 54.5 °F 45.3 °F 30.3 in WSW 10.7 mph 14.5 mph 71% 0 in 0 W/m2
06:16 54.5 °F 45.3 °F 30.3 in SW 9.8 mph 14.5 mph 71% 0 in 0 W/m2
06:21 54.5 °F 45 °F 30.3 in WSW 7.6 mph 18.3 mph 70% 0 in 0 W/m2
06:26 54.3 °F 45.1 °F 30.3 in WSW 3.1 mph 18.3 mph 71% 0 in 0 W/m2
06:31 54.1 °F 45 °F 30.3 in WSW 3.1 mph 13 mph 71% 0 in 0 W/m2
06:36 54 °F 45.1 °F 30.3 in WSW 0.7 mph 13 mph 72% 0 in 0 W/m2
06:41 53.6 °F 44.8 °F 30.3 in West 2.2 mph 6 mph 72% 0 in 0 W/m2
06:46 53.4 °F 45 °F 30.3 in West 0.7 mph 7.6 mph 73% 0 in 0 W/m2
06:51 53.1 °F 44.6 °F 30.3 in Calm   7.6 mph 73% 0 in 0 W/m2
06:56 52.2 °F 44.1 °F 30.3 in NW 0.7 mph 6.9 mph 74% 0 in 0 W/m2
07:01 51.8 °F 44.1 °F 30.3 in NW 2.2 mph 6.9 mph 75% 0 in 0 W/m2
07:06 51.4 °F 44.1 °F 30.3 in Calm   3.8 mph 76% 0 in 0 W/m2
07:11 51.3 °F 44.2 °F 30.3 in Calm   3.8 mph 77% 0 in 0 W/m2
07:16 51.1 °F 44.1 °F 30.3 in NW 2.2 mph 5.4 mph 77% 0 in 0 W/m2
07:21 50.9 °F 44.1 °F 30.3 in NW 2.2 mph 5.4 mph 77% 0 in 0 W/m2
07:26 50.7 °F 44.1 °F 30.3 in NW 2.2 mph 5.4 mph 78% 0 in 0 W/m2
07:31 50.7 °F 44.4 °F 30.3 in NW 3.1 mph 6.9 mph 79% 0 in 0 W/m2
07:36 50.7 °F 44.4 °F 30.3 in NW 3.8 mph 6.9 mph 79% 0 in 0 W/m2
07:41 50.7 °F 44.4 °F 30.3 in NW 4.5 mph 8.3 mph 79% 0 in 0 W/m2
07:46 50.9 °F 44.6 °F 30.3 in NNW 5.4 mph 8.3 mph 79% 0 in 0 W/m2
07:51 50.9 °F 44.2 °F 30.3 in NW 4.5 mph 9.8 mph 78% 0 in 0 W/m2
07:56 51.1 °F 44.4 °F 30.3 in NW 3.8 mph 9.8 mph 78% 0 in 0 W/m2
08:01 51.1 °F 44.1 °F 30.3 in NW 3.1 mph 7.6 mph 77% 0 in 0 W/m2
08:06 50.9 °F 44.1 °F 30.3 in NW 3.8 mph 7.6 mph 77% 0 in 0 W/m2
08:11 50.9 °F 44.1 °F 30.3 in NW 2.2 mph 6.9 mph 77% 0 in 0 W/m2
08:16 50.9 °F 44.2 °F 30.3 in NW 3.1 mph 6 mph 78% 0 in 0 W/m2
08:21 50.7 °F 44.1 °F 30.3 in NW 3.8 mph 6 mph 78% 0 in 0 W/m2
08:26 50.7 °F 44.1 °F 30.3 in NW 3.1 mph 6.9 mph 78% 0 in 0 W/m2
08:31 50.5 °F 43.9 °F 30.3 in NW 5.4 mph 6.9 mph 78% 0 in 0 W/m2
08:36 50.5 °F 43.9 °F 30.3 in NNW 3.8 mph 6.9 mph 78% 0 in 0 W/m2
08:42 50.5 °F 43.9 °F 30.3 in NW 4.5 mph 6.9 mph 78% 0 in 0 W/m2
08:48 50.5 °F 43.5 °F 30.3 in NW 1.6 mph 6.9 mph 77% 0 in 0 W/m2
08:53 50.5 °F 43.5 °F 30.3 in NW 2.2 mph 5.4 mph 77% 0 in 0 W/m2
08:58 50.4 °F 43.3 °F 30.3 in NNW 3.8 mph 5.4 mph 77% 0 in 0 W/m2
09:03 50.2 °F 43.5 °F 30.3 in NNW 2.2 mph 4.5 mph 78% 0 in 0 W/m2
09:08 49.6 °F 43.7 °F 30.3 in NNW 1.6 mph 4.5 mph 80% 0 in 0 W/m2
09:13 49.3 °F 43.7 °F 30.3 in NW 2.2 mph 4.5 mph 81% 0 in 0 W/m2
09:18 49.1 °F 43.9 °F 30.3 in NNW 0.7 mph 4.5 mph 82% 0 in 0 W/m2
09:23 48.9 °F 43.7 °F 30.3 in NNW 3.1 mph 5.4 mph 82% 0 in 0 W/m2
09:28 48.9 °F 43.7 °F 30.3 in NNW 3.1 mph 5.4 mph 82% 0 in 0 W/m2
09:33 48.9 °F 43.7 °F 30.3 in NNW 3.1 mph 5.4 mph 82% 0 in 0 W/m2
09:38 49.1 °F 43.5 °F 30.3 in NNW 2.2 mph 6.9 mph 81% 0 in 0 W/m2
09:43 49.1 °F 43.2 °F 30.3 in NNW 3.1 mph 6.9 mph 80% 0 in 0 W/m2
09:48 49.1 °F 43.2 °F 30.3 in Calm   6.9 mph 80% 0 in 0 W/m2
09:53 48.7 °F 43 °F 30.3 in Calm   4.5 mph 80% 0 in 0 W/m2
09:58 48.4 °F 42.4 °F 30.3 in Calm     80% 0 in 0 W/m2
10:03 48.2 °F 42.6 °F 30.3 in Calm   2.2 mph 81% 0 in 0 W/m2
10:08 48 °F 43.2 °F 30.3 in Calm   3.8 mph 83% 0 in 0 W/m2
10:13 47.7 °F 43.2 °F 30.3 in Calm   3.8 mph 84% 0 in 0 W/m2
10:18 47.5 °F 43 °F 30.3 in Calm   2.2 mph 84% 0 in 0 W/m2
10:23 47.5 °F 43.2 °F 30.3 in North 2.2 mph 3.8 mph 85% 0 in 0 W/m2
10:28 47.7 °F 43.7 °F 30.3 in NNW 0.7 mph 3.8 mph 86% 0 in 0 W/m2
10:33 47.8 °F 43.9 °F 30.3 in NNW 1.6 mph 3.8 mph 86% 0 in 0 W/m2
10:38 48 °F 44.1 °F 30.3 in NW 1.6 mph 6 mph 86% 0 in 0 W/m2
10:43 48.2 °F 43.9 °F 30.3 in NW 3.8 mph 6 mph 85% 0 in 0 W/m2
10:48 48.2 °F 43.5 °F 30.3 in NW 1.6 mph 4.5 mph 84% 0 in 0 W/m2
10:53 48.4 °F 43.9 °F 30.3 in NNW 1.6 mph 5.4 mph 84% 0 in 0 W/m2
10:58 48.4 °F 43.9 °F 30.3 in NNW 2.2 mph 5.4 mph 84% 0 in 0 W/m2
11:03 48.2 °F 43.5 °F 30.3 in NW 2.2 mph 5.4 mph 84% 0 in 0 W/m2
11:08 48.4 °F 43.9 °F 30.3 in NW 1.6 mph 4.5 mph 84% 0 in 0 W/m2
11:13 48.4 °F 43.9 °F 30.3 in Calm   4.5 mph 84% 0 in 0 W/m2
11:18 48.4 °F 43.9 °F 30.3 in Calm   3.8 mph 84% 0 in 0 W/m2
11:23 48.4 °F 43.9 °F 30.3 in Calm   3.8 mph 84% 0 in 0 W/m2
11:28 48.6 °F 44.1 °F 30.3 in Calm     84% 0 in 0 W/m2
11:33 48.7 °F 44.1 °F 30.3 in NNW 1.6 mph 3.1 mph 84% 0 in 0 W/m2
11:38 48.9 °F 44.2 °F 30.3 in NW 3.1 mph 3.8 mph 84% 0 in 0 W/m2
11:43 49.5 °F 44.8 °F 30.3 in NW 0.7 mph 4.5 mph 84% 0 in 0 W/m2
11:48 49.5 °F 44.8 °F 30.3 in NW 2.2 mph 4.5 mph 84% 0 in 0 W/m2
11:53 49.5 °F 44.8 °F 30.3 in Calm   4.5 mph 84% 0 in 0 W/m2
11:58 49.8 °F 45.1 °F 30.3 in NNW 1.6 mph 5.4 mph 84% 0 in 0 W/m2
12:03 49.8 °F 45.1 °F 30.3 in Calm   5.4 mph 84% 0 in 0 W/m2
12:08 49.3 °F 44.8 °F 30.3 in North 2.2 mph 4.5 mph 84% 0 in 0 W/m2
12:13 49.1 °F 44.4 °F 30.3 in North 0.7 mph 4.5 mph 84% 0 in 0 W/m2
12:18 49.1 °F 44.4 °F 30.3 in NNW 3.8 mph 5.4 mph 84% 0 in 0 W/m2
12:23 49.3 °F 45 °F 30.3 in Calm   5.4 mph 85% 0 in 0 W/m2
12:28 49.3 °F 45 °F 30.3 in North 2.2 mph 5.4 mph 85% 0 in 0 W/m2
12:33 49.5 °F 45.1 °F 30.3 in North 1.6 mph 6 mph 85% 0 in 0 W/m2
12:38 49.5 °F 45.1 °F 30.3 in NNW 3.8 mph 6 mph 85% 0 in 0 W/m2
12:43 49.5 °F 45.1 °F 30.3 in NNW 4.5 mph 5.4 mph 85% 0 in 0 W/m2
12:48 49.5 °F 45.1 °F 30.3 in NNW 2.2 mph 6.9 mph 85% 0 in 0 W/m2
12:53 49.5 °F 45.1 °F 30.3 in NW 1.6 mph 6.9 mph 85% 0 in 0 W/m2
12:58 49.5 °F 45.1 °F 30.3 in NW 3.1 mph 5.4 mph 85% 0 in 0 W/m2
13:03 49.6 °F 45.3 °F 30.3 in NNW 3.1 mph 4.5 mph 85% 0 in 0 W/m2
13:08 49.8 °F 45.5 °F 30.3 in NNW 3.1 mph 5.4 mph 85% 0 in 0 W/m2
13:13 50 °F 45.3 °F 30.3 in NNW 1.6 mph 5.4 mph 84% 0 in 0 W/m2
13:30 50 °F 45.3 °F 30.3 in NW 3.1 mph 4.5 mph 84% 0 in 0 W/m2
13:35 50 °F 45.3 °F 30.3 in NW 1.6 mph 4.5 mph 84% 0 in 0 W/m2
13:40 50 °F 45 °F 30.3 in Calm   5.4 mph 83% 0 in 0 W/m2
13:45 50 °F 45 °F 30.3 in Calm   5.4 mph 83% 0 in 0 W/m2
13:50 49.8 °F 45.1 °F 30.3 in NNW 2.2 mph 3.8 mph 84% 0 in 0 W/m2
14:07 50 °F 45.3 °F 30.3 in NNW 3.8 mph 6 mph 84% 0 in 0 W/m2
14:12 50 °F 45.3 °F 30.3 in NNW 3.8 mph 7.6 mph 84% 0 in 0 W/m2
14:17 50 °F 45.3 °F 30.3 in NNW 3.1 mph 7.6 mph 84% 0 in 0 W/m2
14:22 50 °F 45 °F 30.3 in NW 2.2 mph 5.4 mph 83% 0 in 0 W/m2
14:27 50 °F 45 °F 30.3 in NW 3.1 mph 4.5 mph 83% 0 in 0 W/m2
14:32 49.8 °F 45.1 °F 30.3 in NNW 3.8 mph 5.4 mph 84% 0 in 0 W/m2
14:37 49.6 °F 45.3 °F 30.3 in NNW 1.6 mph 6 mph 85% 0 in 0 W/m2
14:42 49.6 °F 45.3 °F 30.3 in Calm   6 mph 85% 0 in 0 W/m2
14:46 49.5 °F 45.1 °F 30.3 in Calm   3.8 mph 85% 0 in 2 W/m2
14:52 49.5 °F 45.1 °F 30.3 in WNW 3.8 mph 5.4 mph 85% 0 in 4 W/m2
14:57 49.5 °F 45.1 °F 30.3 in NW 3.8 mph 7.6 mph 85% 0 in 6 W/m2
15:02 49.8 °F 45.5 °F 30.3 in NNW 1.6 mph 7.6 mph 85% 0 in 9 W/m2
15:06 49.8 °F 45.5 °F 30.3 in NW 1.6 mph 6 mph 85% 0 in 13 W/m2
15:11 50 °F 45.3 °F 30.3 in Calm   5.4 mph 84% 0 in 14 W/m2
15:17 50 °F 45.3 °F 30.3 in NNW 0.7 mph 5.4 mph 84% 0 in 19 W/m2
15:22 50 °F 45.3 °F 30.3 in NW 1.6 mph 3.1 mph 84% 0 in 24 W/m2
15:27 50 °F 45.3 °F 30.3 in NW 3.1 mph 4.5 mph 84% 0 in 29 W/m2
15:32 50 °F 45.7 °F 30.3 in NW 2.2 mph 5.4 mph 85% 0 in 33 W/m2
15:37 50.2 °F 45.5 °F 30.4 in NNW 2.2 mph 5.4 mph 84% 0 in 39 W/m2
15:42 50.4 °F 45.7 °F 30.4 in North 2.2 mph 5.4 mph 84% 0 in 52 W/m2
15:47 50.7 °F 46 °F 30.4 in North 3.8 mph 6 mph 84% 0 in 55 W/m2
15:52 50.7 °F 45.9 °F 30.4 in North 3.1 mph 6 mph 83% 0 in 49 W/m2
15:57 50.7 °F 45.9 °F 30.4 in NNW 2.2 mph 6.9 mph 83% 0 in 66 W/m2
16:01 50.9 °F 45.9 °F 30.4 in North 3.1 mph 6.9 mph 83% 0 in 74 W/m2
16:07 51.1 °F 46 °F 30.4 in North 3.8 mph 6.9 mph 83% 0 in 79 W/m2
16:12 51.3 °F 46.2 °F 30.4 in NNW 2.2 mph 6 mph 83% 0 in 84 W/m2
16:17 51.4 °F 46.6 °F 30.4 in NNW 3.8 mph 6 mph 83% 0 in 91 W/m2
16:22 51.6 °F 46.2 °F 30.4 in North 5.4 mph 6 mph 82% 0 in 97 W/m2
16:26 51.8 °F 46.2 °F 30.4 in North 3.8 mph 6.9 mph 81% 0 in 104 W/m2
16:32 52 °F 46.2 °F 30.4 in NNW 3.8 mph 8.3 mph 81% 0 in 111 W/m2
16:37 52.3 °F 46.4 °F 30.4 in NNW 4.5 mph 8.3 mph 80% 0 in 125 W/m2
16:42 52.7 °F 46.8 °F 30.4 in NNW 3.1 mph 8.3 mph 80% 0 in 124 W/m2
16:47 52.9 °F 46.9 °F 30.4 in NNW 3.1 mph 6.9 mph 80% 0 in 120 W/m2
16:52 53.4 °F 47.1 °F 30.4 in NNW 0.7 mph 6.9 mph 79% 0 in 122 W/m2
16:56 53.4 °F 46.8 °F 30.4 in NNW 3.8 mph 6 mph 78% 0 in 126 W/m2
17:02 53.6 °F 46.2 °F 30.4 in NNW 1.6 mph 6 mph 76% 0 in 125 W/m2
17:07 53.8 °F 46.4 °F 30.4 in NW 4.5 mph 6 mph 76% 0 in 126 W/m2
17:12 53.8 °F 46 °F 30.4 in NW 4.5 mph 6.9 mph 75% 0 in 128 W/m2
17:16 54.1 °F 46.4 °F 30.4 in NNW 3.8 mph 7.6 mph 75% 0 in 130 W/m2
17:22 54.3 °F 46.6 °F 30.4 in NNW 2.2 mph 7.6 mph 75% 0 in 135 W/m2
17:26 54.5 °F 46.4 °F 30.4 in NNW 0.7 mph 6 mph 74% 0 in 141 W/m2
17:32 55 °F 46.9 °F 30.4 in NNW 2.2 mph 5.4 mph 74% 0 in 149 W/m2
17:36 55.2 °F 47.1 °F 30.4 in NNW 2.2 mph 5.4 mph 74% 0 in 164 W/m2
17:41 55.4 °F 47.3 °F 30.4 in North 1.6 mph 5.4 mph 74% 0 in 176 W/m2
17:46 55.6 °F 46.2 °F 30.4 in NNW 3.1 mph 6.9 mph 71% 0 in 179 W/m2
17:52 55.9 °F 46.8 °F 30.4 in Calm   6.9 mph 71% 0 in 181 W/m2
17:57 56.5 °F 47.1 °F 30.4 in NNW 1.6 mph 6 mph 71% 0 in 187 W/m2
18:02 56.5 °F 46.8 °F 30.4 in NNW 3.1 mph 6 mph 70% 0 in 188 W/m2
18:06 56.5 °F 46.8 °F 30.4 in NNW 3.1 mph 7.6 mph 70% 0 in 201 W/m2
18:11 56.7 °F 46.9 °F 30.4 in NNW 3.1 mph 7.6 mph 70% 0 in 213 W/m2
18:16 57.2 °F 47.1 °F 30.4 in NNW 3.1 mph 6.9 mph 69% 0 in 221 W/m2
18:22 58.1 °F 48.4 °F 30.4 in NNW 4.5 mph 6.9 mph 70% 0 in 219 W/m2
18:26 57.7 °F 47.3 °F 30.4 in NW 3.8 mph 6.9 mph 68% 0 in 232 W/m2
18:31 57.9 °F 47.8 °F 30.4 in NNW 3.1 mph 6.9 mph 69% 0 in 230 W/m2
18:37 58.5 °F 47.7 °F 30.4 in NNW 1.6 mph 6 mph 67% 0 in 231 W/m2
18:41 59 °F 47.3 °F 30.4 in NW 2.2 mph 5.4 mph 65% 0 in 234 W/m2
18:47 59.5 °F 47.8 °F 30.4 in Calm   4.5 mph 65% 0 in 235 W/m2
18:52 60.1 °F 46.9 °F 30.4 in Calm   5.4 mph 62% 0 in 249 W/m2
18:56 61.9 °F 47.8 °F 30.4 in WNW 2.2 mph 5.4 mph 60% 0 in 545 W/m2
19:01 63 °F 47.5 °F 30.4 in West 1.6 mph 3.1 mph 57% 0 in 315 W/m2
19:06 62.6 °F 46.8 °F 30.4 in Calm   4.5 mph 56% 0 in 403 W/m2
19:11 62.8 °F 45.3 °F 30.4 in WNW 3.8 mph 5.4 mph 53% 0 in 292 W/m2
19:16 62.2 °F 45.9 °F 30.4 in WNW 3.8 mph 5.4 mph 55% 0 in 254 W/m2
19:21 61.7 °F 45 °F 30.4 in SSW 3.8 mph 6 mph 54% 0 in 281 W/m2
19:27 61.2 °F 45 °F 30.4 in SSW 4.5 mph 7.6 mph 55% 0 in 324 W/m2
19:32 61.5 °F 44.8 °F 30.4 in SW 2.2 mph 7.6 mph 54% 0 in 338 W/m2
19:36 62.1 °F 44.8 °F 30.4 in SW 4.5 mph 8.3 mph 53% 0 in 387 W/m2
19:41 61.3 °F 44.6 °F 30.4 in WSW 3.8 mph 8.3 mph 54% 0 in 178 W/m2
19:46 60.3 °F 44.4 °F 30.4 in SW 3.1 mph 9.2 mph 56% 0 in 114 W/m2
19:52 59.5 °F 44.8 °F 30.4 in SW 3.1 mph 9.8 mph 58% 0 in 122 W/m2
19:56 59.9 °F 45.1 °F 30.4 in SW 5.4 mph 9.8 mph 58% 0 in 422 W/m2
20:01 60.4 °F 45.1 °F 30.4 in SW 8.3 mph 14.5 mph 57% 0 in 457 W/m2
20:06 60.8 °F 44.4 °F 30.4 in SW 3.1 mph 14.5 mph 55% 0 in 473 W/m2
20:11 62.8 °F 46.4 °F 30.4 in SSW 4.5 mph 14.5 mph 55% 0 in 521 W/m2
20:16 63.1 °F 45.1 °F 30.4 in SW 3.1 mph 7.6 mph 52% 0 in 524 W/m2
20:21 63 °F 45.1 °F 30.4 in SW 5.4 mph 9.8 mph 52% 0 in 452 W/m2
20:26 62.8 °F 45.3 °F 30.4 in SW 4.5 mph 9.8 mph 53% 0 in 539 W/m2
20:32 62.4 °F 45.7 °F 30.4 in SW 6.9 mph 12.1 mph 54% 0 in 458 W/m2
20:36 61.9 °F 45.7 °F 30.4 in SW 6.9 mph 12.1 mph 55% 0 in 346 W/m2
20:41 61.7 °F 45.3 °F 30.4 in SW 7.6 mph 10.7 mph 55% 0 in 303 W/m2
20:46 61.3 °F 45 °F 30.4 in SW 5.4 mph 9.8 mph 55% 0 in 332 W/m2
20:51 61.5 °F 45.1 °F 30.4 in SW 3.8 mph 9.8 mph 55% 0 in 326 W/m2
20:56 62.1 °F 45.7 °F 30.4 in SSW 3.8 mph 9.2 mph 55% 0 in 393 W/m2
21:00 62.4 °F 45.7 °F 30.4 in SW 4.5 mph 8.3 mph 54% 0 in 340 W/m2
21:05 62.8 °F 45 °F 30.4 in SW 3.1 mph 7.6 mph 52% 0 in 302 W/m2
21:11 63 °F 45.1 °F 30.4 in SSW 4.5 mph 7.6 mph 52% 0 in 336 W/m2
21:15 62.8 °F 45.3 °F 30.4 in SSW 5.4 mph 8.3 mph 53% 0 in 296 W/m2
21:20 62.1 °F 45.1 °F 30.4 in South 5.4 mph 8.3 mph 54% 0 in 252 W/m2
21:25 62.2 °F 45.3 °F 30.4 in South 3.8 mph 7.6 mph 54% 0 in 376 W/m2
21:30 63 °F 45.1 °F 30.4 in SSW 3.8 mph 8.3 mph 52% 0 in 209 W/m2
21:35 62.1 °F 44.8 °F 30.4 in South 4.5 mph 8.3 mph 53% 0 in 114 W/m2
21:40 61.3 °F 45 °F 30.4 in South 3.8 mph 7.6 mph 55% 0 in 110 W/m2
21:46 60.4 °F 45.1 °F 30.4 in South 3.1 mph 7.6 mph 57% 0 in 119 W/m2
21:50 60.1 °F 45.3 °F 30.4 in South 3.1 mph 6.9 mph 58% 0 in 140 W/m2
21:55 60.1 °F 44.8 °F 30.4 in SSW 4.5 mph 6.9 mph 57% 0 in 149 W/m2
22:01 60.3 °F 45 °F 30.4 in SSW 3.8 mph 6.9 mph 57% 0 in 146 W/m2
22:05 60.3 °F 45 °F 30.4 in SSW 1.6 mph 6 mph 57% 0 in 149 W/m2
22:10 60.3 °F 44.4 °F 30.4 in South 3.1 mph 6 mph 56% 0 in 147 W/m2
22:15 60.3 °F 45.9 °F 30.4 in SSW 1.6 mph 6 mph 59% 0 in 142 W/m2
22:20 60.3 °F 45.3 °F 30.4 in South 3.1 mph 6 mph 58% 0 in 150 W/m2
22:25 60.3 °F 45.9 °F 30.4 in South 2.2 mph 5.4 mph 59% 0 in 164 W/m2
22:30 60.8 °F 45.5 °F 30.4 in South 3.1 mph 5.4 mph 57% 0 in 171 W/m2
22:35 62.6 °F 45.7 °F 30.4 in South 3.1 mph 4.5 mph 54% 0 in 215 W/m2
22:40 64.9 °F 45.9 °F 30.4 in South 3.1 mph 4.5 mph 50% 0 in 203 W/m2
22:45 65.5 °F 46.4 °F 30.4 in South 3.1 mph 5.4 mph 50% 0 in 187 W/m2
22:50 66.6 °F 45.1 °F 30.4 in SSW 3.1 mph 5.4 mph 46% 0 in 127 W/m2
22:56 66.2 °F 44.8 °F 30.4 in SW 2.2 mph 6 mph 46% 0 in 90 W/m2
23:01 68 °F 45.9 °F 30.4 in SW 1.6 mph 6 mph 45% 0 in 82 W/m2
23:06 68.7 °F 45.9 °F 30.4 in SE 0.7 mph 4.5 mph 44% 0 in 112 W/m2
23:11 68 °F 45.9 °F 30.4 in Calm   5.4 mph 45% 0 in 182 W/m2
23:16 69.4 °F 46.6 °F 30.4 in SSE 2.2 mph 5.4 mph 44% 0 in 205 W/m2
23:21 69.6 °F 46.8 °F 30.4 in SE 1.6 mph 3.8 mph 44% 0 in 202 W/m2
23:26 69.4 °F 46 °F 30.4 in SSE 3.1 mph 4.5 mph 43% 0 in 194 W/m2
23:31 69.4 °F 46 °F 30.4 in South 1.6 mph 5.4 mph 43% 0 in 183 W/m2
23:36 68.5 °F 45.1 °F 30.4 in Calm   5.4 mph 43% 0 in 173 W/m2
23:41 70.7 °F 45.9 °F 30.4 in Calm   3.8 mph 41% 0 in 162 W/m2
23:46 71.1 °F 46.2 °F 30.4 in Calm   2.2 mph 41% 0 in 150 W/m2
23:51 71.8 °F 44.1 °F 30.4 in SE 1.6 mph 3.8 mph 37% 0 in 138 W/m2
23:56 70.5 °F 45.1 °F 30.4 in SSE 0.7 mph 3.8 mph 40% 0 in 126 W/m2
Northern Hawkes Bay. New Zealand Historic Data
Compliments of Weather Underground - 2 mb